sensor_id;sensor_type;location;lat;lon;timestamp;pressure;altitude;pressure_sealevel;temperature;humidity
64521;BME280;50896;46.714;17.322;2023-03-01T00:01:29;101522.53;;;3.47;94.71
64521;BME280;50896;46.714;17.322;2023-03-01T00:03:56;101493.72;;;3.29;95.67
64521;BME280;50896;46.714;17.322;2023-03-01T00:06:25;101514.03;;;3.41;96.79
64521;BME280;50896;46.714;17.322;2023-03-01T00:08:53;101521.00;;;3.42;96.66
64521;BME280;50896;46.714;17.322;2023-03-01T00:11:23;101506.75;;;3.47;94.94
64521;BME280;50896;46.714;17.322;2023-03-01T00:13:52;101486.91;;;3.41;93.70
64521;BME280;50896;46.714;17.322;2023-03-01T00:16:31;101510.31;;;3.46;95.63
64521;BME280;50896;46.714;17.322;2023-03-01T00:19:00;101505.22;;;3.42;96.46
64521;BME280;50896;46.714;17.322;2023-03-01T00:21:28;101486.59;;;3.31;96.79
64521;BME280;50896;46.714;17.322;2023-03-01T00:23:55;101490.13;;;3.46;95.13
64521;BME280;50896;46.714;17.322;2023-03-01T00:26:24;101504.03;;;3.48;94.77
64521;BME280;50896;46.714;17.322;2023-03-01T00:28:51;101475.22;;;3.31;93.47
64521;BME280;50896;46.714;17.322;2023-03-01T00:31:21;101508.78;;;3.41;94.10
64521;BME280;50896;46.714;17.322;2023-03-01T00:33:48;101469.97;;;3.31;93.71
64521;BME280;50896;46.714;17.322;2023-03-01T00:36:15;101491.91;;;3.46;96.35
64521;BME280;50896;46.714;17.322;2023-03-01T00:38:44;101494.34;;;3.49;95.10
64521;BME280;50896;46.714;17.322;2023-03-01T00:41:14;101467.94;;;3.36;92.86
64521;BME280;50896;46.714;17.322;2023-03-01T00:43:41;101494.19;;;3.52;93.10
64521;BME280;50896;46.714;17.322;2023-03-01T00:46:17;101494.09;;;3.53;92.24
64521;BME280;50896;46.714;17.322;2023-03-01T00:48:45;101484.78;;;3.48;93.09
64521;BME280;50896;46.714;17.322;2023-03-01T00:51:18;101480.34;;;3.48;90.34
64521;BME280;50896;46.714;17.322;2023-03-01T00:53:45;101478.66;;;3.47;92.15
64521;BME280;50896;46.714;17.322;2023-03-01T00:56:14;101477.22;;;3.41;93.55
64521;BME280;50896;46.714;17.322;2023-03-01T00:58:43;101455.16;;;3.30;89.17
64521;BME280;50896;46.714;17.322;2023-03-01T01:01:32;101457.41;;;3.36;86.35
64521;BME280;50896;46.714;17.322;2023-03-01T01:04:04;101478.09;;;3.42;87.58
64521;BME280;50896;46.714;17.322;2023-03-01T01:06:34;101469.25;;;3.43;87.19
64521;BME280;50896;46.714;17.322;2023-03-01T01:09:03;101471.22;;;3.39;85.20
64521;BME280;50896;46.714;17.322;2023-03-01T01:11:31;101460.03;;;3.36;83.16
64521;BME280;50896;46.714;17.322;2023-03-01T01:13:58;101431.38;;;3.17;83.08
64521;BME280;50896;46.714;17.322;2023-03-01T01:16:27;101464.00;;;3.43;83.69
64521;BME280;50896;46.714;17.322;2023-03-01T01:18:56;101467.41;;;3.45;84.57
64521;BME280;50896;46.714;17.322;2023-03-01T01:21:24;101462.72;;;3.50;84.95
64521;BME280;50896;46.714;17.322;2023-03-01T01:23:51;101437.41;;;3.33;87.19
64521;BME280;50896;46.714;17.322;2023-03-01T01:26:29;101450.28;;;3.38;88.14
64521;BME280;50896;46.714;17.322;2023-03-01T01:28:58;101425.94;;;3.20;89.04
64521;BME280;50896;46.714;17.322;2023-03-01T01:31:27;101446.81;;;3.37;88.84
64521;BME280;50896;46.714;17.322;2023-03-01T01:33:56;101439.59;;;3.41;90.62
64521;BME280;50896;46.714;17.322;2023-03-01T01:36:23;101419.47;;;3.25;92.74
64521;BME280;50896;46.714;17.322;2023-03-01T01:38:50;101425.28;;;3.31;95.97
64521;BME280;50896;46.714;17.322;2023-03-01T01:41:19;101440.81;;;3.35;93.17
64521;BME280;50896;46.714;17.322;2023-03-01T01:46:37;101431.00;;;3.23;90.17
64521;BME280;50896;46.714;17.322;2023-03-01T01:49:22;101434.03;;;3.31;92.38
64521;BME280;50896;46.714;17.322;2023-03-01T01:51:56;101429.50;;;3.33;91.76
64521;BME280;50896;46.714;17.322;2023-03-01T01:54:28;101426.25;;;3.30;93.39
64521;BME280;50896;46.714;17.322;2023-03-01T01:57:03;101437.50;;;3.32;94.76
64521;BME280;50896;46.714;17.322;2023-03-01T01:59:33;101428.88;;;3.44;93.05
64521;BME280;50896;46.714;17.322;2023-03-01T02:02:02;101426.44;;;3.41;94.67
64521;BME280;50896;46.714;17.322;2023-03-01T02:04:31;101425.88;;;3.36;95.76
64521;BME280;50896;46.714;17.322;2023-03-01T02:07:07;101418.84;;;3.36;97.02
64521;BME280;50896;46.714;17.322;2023-03-01T02:09:35;101425.38;;;3.29;100.00
64521;BME280;50896;46.714;17.322;2023-03-01T02:12:04;101412.06;;;3.32;97.99
64521;BME280;50896;46.714;17.322;2023-03-01T02:14:32;101424.25;;;3.33;99.87
64521;BME280;50896;46.714;17.322;2023-03-01T02:16:59;101414.84;;;3.29;100.00
64521;BME280;50896;46.714;17.322;2023-03-01T02:22:20;101415.06;;;3.26;100.00
64521;BME280;50896;46.714;17.322;2023-03-01T02:25:10;101413.94;;;3.30;100.00
64521;BME280;50896;46.714;17.322;2023-03-01T02:30:15;101413.09;;;3.30;96.64
64521;BME280;50896;46.714;17.322;2023-03-01T02:32:43;101410.47;;;3.30;98.59
64521;BME280;50896;46.714;17.322;2023-03-01T02:35:13;101417.50;;;3.29;95.14
64521;BME280;50896;46.714;17.322;2023-03-01T02:37:42;101409.16;;;3.37;95.09
64521;BME280;50896;46.714;17.322;2023-03-01T02:40:12;101412.63;;;3.37;93.91
64521;BME280;50896;46.714;17.322;2023-03-01T02:42:49;101406.88;;;3.31;95.79
64521;BME280;50896;46.714;17.322;2023-03-01T02:45:17;101405.22;;;3.30;97.14
64521;BME280;50896;46.714;17.322;2023-03-01T02:47:44;101415.63;;;3.31;97.93
64521;BME280;50896;46.714;17.322;2023-03-01T02:55:33;101400.97;;;3.27;95.98
64521;BME280;50896;46.714;17.322;2023-03-01T02:58:02;101403.50;;;3.29;96.57
64521;BME280;50896;46.714;17.322;2023-03-01T03:00:35;101414.03;;;3.29;98.77
64521;BME280;50896;46.714;17.322;2023-03-01T03:03:07;101419.47;;;3.25;99.22
64521;BME280;50896;46.714;17.322;2023-03-01T03:05:34;101410.81;;;3.23;99.28
64521;BME280;50896;46.714;17.322;2023-03-01T03:08:02;101402.78;;;3.27;98.23
64521;BME280;50896;46.714;17.322;2023-03-01T03:10:37;101381.34;;;3.18;99.00
64521;BME280;50896;46.714;17.322;2023-03-01T03:13:10;101399.09;;;3.29;99.59
64521;BME280;50896;46.714;17.322;2023-03-01T03:15:38;101396.66;;;3.26;100.00
64521;BME280;50896;46.714;17.322;2023-03-01T03:18:11;101408.03;;;3.27;100.00
64521;BME280;50896;46.714;17.322;2023-03-01T03:20:40;101386.22;;;3.24;100.00
64521;BME280;50896;46.714;17.322;2023-03-01T03:23:08;101382.78;;;3.24;100.00
64521;BME280;50896;46.714;17.322;2023-03-01T03:25:35;101404.09;;;3.34;100.00
64521;BME280;50896;46.714;17.322;2023-03-01T03:28:06;101406.72;;;3.34;100.00
64521;BME280;50896;46.714;17.322;2023-03-01T03:30:39;101389.97;;;3.20;100.00
64521;BME280;50896;46.714;17.322;2023-03-01T03:33:06;101408.78;;;3.29;100.00
64521;BME280;50896;46.714;17.322;2023-03-01T03:35:39;101393.44;;;3.21;100.00
64521;BME280;50896;46.714;17.322;2023-03-01T03:38:09;101414.31;;;3.24;100.00
64521;BME280;50896;46.714;17.322;2023-03-01T03:40:50;101409.78;;;3.26;100.00
64521;BME280;50896;46.714;17.322;2023-03-01T03:43:19;101387.44;;;3.19;100.00
64521;BME280;50896;46.714;17.322;2023-03-01T03:45:48;101405.84;;;3.19;100.00
64521;BME280;50896;46.714;17.322;2023-03-01T03:48:15;101396.06;;;3.21;100.00
64521;BME280;50896;46.714;17.322;2023-03-01T03:50:48;101398.69;;;3.21;100.00
64521;BME280;50896;46.714;17.322;2023-03-01T03:53:16;101393.38;;;3.22;100.00
64521;BME280;50896;46.714;17.322;2023-03-01T03:55:43;101404.03;;;3.19;100.00
64521;BME280;50896;46.714;17.322;2023-03-01T03:58:11;101389.09;;;3.05;100.00
64521;BME280;50896;46.714;17.322;2023-03-01T04:00:40;101405.34;;;3.12;100.00
64521;BME280;50896;46.714;17.322;2023-03-01T04:03:08;101407.88;;;3.14;100.00
64521;BME280;50896;46.714;17.322;2023-03-01T04:05:36;101410.03;;;3.07;100.00
64521;BME280;50896;46.714;17.322;2023-03-01T04:08:03;101377.88;;;2.87;100.00
64521;BME280;50896;46.714;17.322;2023-03-01T04:10:32;101391.31;;;2.97;100.00
64521;BME280;50896;46.714;17.322;2023-03-01T04:12:59;101399.69;;;3.04;100.00
64521;BME280;50896;46.714;17.322;2023-03-01T04:15:27;101396.56;;;2.97;100.00
64521;BME280;50896;46.714;17.322;2023-03-01T04:17:55;101389.72;;;2.95;100.00
64521;BME280;50896;46.714;17.322;2023-03-01T04:20:27;101385.00;;;2.85;100.00
64521;BME280;50896;46.714;17.322;2023-03-01T04:22:59;101392.78;;;2.87;100.00
64521;BME280;50896;46.714;17.322;2023-03-01T04:25:26;101378.59;;;2.75;100.00
64521;BME280;50896;46.714;17.322;2023-03-01T04:27:52;101386.03;;;2.83;100.00
64521;BME280;50896;46.714;17.322;2023-03-01T04:30:19;101398.03;;;2.87;100.00
64521;BME280;50896;46.714;17.322;2023-03-01T04:32:46;101395.50;;;2.85;100.00
64521;BME280;50896;46.714;17.322;2023-03-01T04:35:13;101392.19;;;2.82;100.00
64521;BME280;50896;46.714;17.322;2023-03-01T04:37:40;101394.66;;;2.85;100.00
64521;BME280;50896;46.714;17.322;2023-03-01T04:40:08;101392.88;;;2.85;100.00
64521;BME280;50896;46.714;17.322;2023-03-01T04:42:42;101390.63;;;2.79;100.00
64521;BME280;50896;46.714;17.322;2023-03-01T04:45:09;101371.16;;;2.67;100.00
64521;BME280;50896;46.714;17.322;2023-03-01T04:47:44;101395.78;;;2.81;100.00
64521;BME280;50896;46.714;17.322;2023-03-01T04:50:15;101390.53;;;2.81;100.00
64521;BME280;50896;46.714;17.322;2023-03-01T04:52:44;101377.16;;;2.69;100.00
64521;BME280;50896;46.714;17.322;2023-03-01T04:55:11;101387.22;;;2.77;100.00
64521;BME280;50896;46.714;17.322;2023-03-01T04:57:38;101387.50;;;2.72;100.00
64521;BME280;50896;46.714;17.322;2023-03-01T05:00:08;101387.00;;;2.66;100.00
64521;BME280;50896;46.714;17.322;2023-03-01T05:02:54;101394.50;;;2.72;100.00
64521;BME280;50896;46.714;17.322;2023-03-01T05:05:26;101389.63;;;2.66;100.00
64521;BME280;50896;46.714;17.322;2023-03-01T05:07:58;101392.75;;;2.72;100.00
64521;BME280;50896;46.714;17.322;2023-03-01T05:10:26;101384.19;;;2.69;100.00
64521;BME280;50896;46.714;17.322;2023-03-01T05:12:57;101397.59;;;2.64;100.00
64521;BME280;50896;46.714;17.322;2023-03-01T05:15:26;101392.16;;;2.67;100.00
64521;BME280;50896;46.714;17.322;2023-03-01T05:17:54;101399.09;;;2.68;100.00
64521;BME280;50896;46.714;17.322;2023-03-01T05:20:21;101400.03;;;2.67;100.00
64521;BME280;50896;46.714;17.322;2023-03-01T05:22:55;101407.16;;;2.65;100.00
64521;BME280;50896;46.714;17.322;2023-03-01T05:25:22;101374.72;;;2.50;100.00
64521;BME280;50896;46.714;17.322;2023-03-01T05:27:48;101402.16;;;2.61;100.00
64521;BME280;50896;46.714;17.322;2023-03-01T05:30:16;101401.50;;;2.57;100.00
64521;BME280;50896;46.714;17.322;2023-03-01T05:32:46;101402.91;;;2.63;100.00
64521;BME280;50896;46.714;17.322;2023-03-01T05:35:14;101399.94;;;2.69;100.00
64521;BME280;50896;46.714;17.322;2023-03-01T05:37:46;101394.34;;;2.75;100.00
64521;BME280;50896;46.714;17.322;2023-03-01T05:40:16;101397.91;;;2.74;100.00
64521;BME280;50896;46.714;17.322;2023-03-01T05:42:48;101396.88;;;2.77;100.00
64521;BME280;50896;46.714;17.322;2023-03-01T05:45:16;101402.97;;;2.77;100.00
64521;BME280;50896;46.714;17.322;2023-03-01T05:47:45;101382.25;;;2.72;100.00
64521;BME280;50896;46.714;17.322;2023-03-01T05:52:40;101395.69;;;2.82;100.00
64521;BME280;50896;46.714;17.322;2023-03-01T05:55:08;101398.41;;;2.81;100.00
64521;BME280;50896;46.714;17.322;2023-03-01T05:57:34;101401.38;;;2.74;100.00
64521;BME280;50896;46.714;17.322;2023-03-01T06:00:02;101398.75;;;2.74;100.00
64521;BME280;50896;46.714;17.322;2023-03-01T06:02:38;101406.06;;;2.69;100.00
64521;BME280;50896;46.714;17.322;2023-03-01T06:05:06;101401.81;;;2.67;100.00
64521;BME280;50896;46.714;17.322;2023-03-01T06:07:34;101402.91;;;2.63;100.00
64521;BME280;50896;46.714;17.322;2023-03-01T06:10:02;101401.41;;;2.59;100.00
64521;BME280;50896;46.714;17.322;2023-03-01T06:12:31;101411.44;;;2.66;100.00
64521;BME280;50896;46.714;17.322;2023-03-01T06:14:59;101407.91;;;2.67;100.00
64521;BME280;50896;46.714;17.322;2023-03-01T06:17:26;101410.09;;;2.75;100.00
64521;BME280;50896;46.714;17.322;2023-03-01T06:19:55;101414.59;;;2.73;100.00
64521;BME280;50896;46.714;17.322;2023-03-01T06:22:22;101417.22;;;2.73;100.00
64521;BME280;50896;46.714;17.322;2023-03-01T06:24:48;101425.97;;;2.73;100.00
64521;BME280;50896;46.714;17.322;2023-03-01T06:27:15;101424.25;;;2.72;100.00
64521;BME280;50896;46.714;17.322;2023-03-01T06:29:42;101405.03;;;2.56;100.00
64521;BME280;50896;46.714;17.322;2023-03-01T06:32:09;101429.69;;;2.69;100.00
64521;BME280;50896;46.714;17.322;2023-03-01T06:34:36;101436.38;;;2.75;100.00
64521;BME280;50896;46.714;17.322;2023-03-01T06:37:03;101421.31;;;2.63;100.00
64521;BME280;50896;46.714;17.322;2023-03-01T06:39:32;101440.84;;;2.73;100.00
64521;BME280;50896;46.714;17.322;2023-03-01T06:41:59;101417.75;;;2.64;100.00
64521;BME280;50896;46.714;17.322;2023-03-01T06:44:26;101439.75;;;2.77;100.00
64521;BME280;50896;46.714;17.322;2023-03-01T06:46:53;101432.69;;;2.78;100.00
64521;BME280;50896;46.714;17.322;2023-03-01T06:49:20;101399.19;;;2.51;100.00
64521;BME280;50896;46.714;17.322;2023-03-01T06:51:47;101439.66;;;2.79;100.00
64521;BME280;50896;46.714;17.322;2023-03-01T06:54:14;101421.22;;;2.64;100.00
64521;BME280;50896;46.714;17.322;2023-03-01T06:56:41;101441.78;;;2.72;100.00
64521;BME280;50896;46.714;17.322;2023-03-01T06:59:08;101446.09;;;2.73;100.00
64521;BME280;50896;46.714;17.322;2023-03-01T07:01:34;101431.44;;;2.69;100.00
64521;BME280;50896;46.714;17.322;2023-03-01T07:04:01;101438.06;;;2.60;100.00
64521;BME280;50896;46.714;17.322;2023-03-01T07:06:28;101427.56;;;2.60;100.00
64521;BME280;50896;46.714;17.322;2023-03-01T07:08:55;101448.06;;;2.69;100.00
64521;BME280;50896;46.714;17.322;2023-03-01T07:11:22;101428.50;;;2.59;100.00
64521;BME280;50896;46.714;17.322;2023-03-01T07:13:49;101450.44;;;2.74;100.00
64521;BME280;50896;46.714;17.322;2023-03-01T07:16:16;101445.34;;;2.71;100.00
64521;BME280;50896;46.714;17.322;2023-03-01T07:18:43;101447.63;;;2.77;100.00
64521;BME280;50896;46.714;17.322;2023-03-01T07:21:12;101452.28;;;2.72;100.00
64521;BME280;50896;46.714;17.322;2023-03-01T07:23:39;101443.66;;;2.70;100.00
64521;BME280;50896;46.714;17.322;2023-03-01T07:26:06;101421.47;;;2.60;100.00
64521;BME280;50896;46.714;17.322;2023-03-01T07:28:33;101425.88;;;2.59;100.00
64521;BME280;50896;46.714;17.322;2023-03-01T07:31:05;101442.47;;;2.76;100.00
64521;BME280;50896;46.714;17.322;2023-03-01T07:33:32;101441.25;;;2.81;100.00
64521;BME280;50896;46.714;17.322;2023-03-01T07:36:04;101437.91;;;2.79;100.00
64521;BME280;50896;46.714;17.322;2023-03-01T07:38:31;101421.81;;;2.69;100.00
64521;BME280;50896;46.714;17.322;2023-03-01T07:41:00;101419.25;;;2.68;100.00
64521;BME280;50896;46.714;17.322;2023-03-01T07:43:28;101438.53;;;2.83;100.00
64521;BME280;50896;46.714;17.322;2023-03-01T07:45:59;101433.28;;;2.83;100.00
64521;BME280;50896;46.714;17.322;2023-03-01T07:48:27;101444.31;;;2.89;100.00
64521;BME280;50896;46.714;17.322;2023-03-01T07:50:54;101445.50;;;2.84;100.00
64521;BME280;50896;46.714;17.322;2023-03-01T07:53:23;101442.78;;;2.85;100.00
64521;BME280;50896;46.714;17.322;2023-03-01T07:56:03;101440.16;;;2.85;100.00
64521;BME280;50896;46.714;17.322;2023-03-01T07:58:30;101433.03;;;2.87;100.00
64521;BME280;50896;46.714;17.322;2023-03-01T08:01:02;101433.97;;;2.86;100.00
64521;BME280;50896;46.714;17.322;2023-03-01T08:03:29;101417.25;;;2.87;100.00
64521;BME280;50896;46.714;17.322;2023-03-01T08:05:58;101427.53;;;2.92;100.00
64521;BME280;50896;46.714;17.322;2023-03-01T08:08:25;101419.84;;;2.89;100.00
64521;BME280;50896;46.714;17.322;2023-03-01T08:10:52;101423.09;;;2.93;100.00
64521;BME280;50896;46.714;17.322;2023-03-01T08:13:19;101420.84;;;2.86;100.00
64521;BME280;50896;46.714;17.322;2023-03-01T08:15:49;101399.59;;;2.75;100.00
64521;BME280;50896;46.714;17.322;2023-03-01T08:18:17;101406.53;;;2.76;100.00
64521;BME280;50896;46.714;17.322;2023-03-01T08:20:44;101399.59;;;2.75;100.00
64521;BME280;50896;46.714;17.322;2023-03-01T08:23:11;101412.59;;;2.93;100.00
64521;BME280;50896;46.714;17.322;2023-03-01T08:25:38;101409.38;;;2.87;100.00
64521;BME280;50896;46.714;17.322;2023-03-01T08:28:05;101396.13;;;2.74;100.00
64521;BME280;50896;46.714;17.322;2023-03-01T08:30:32;101387.13;;;2.79;100.00
64521;BME280;50896;46.714;17.322;2023-03-01T08:32:59;101415.41;;;2.89;100.00
64521;BME280;50896;46.714;17.322;2023-03-01T08:35:26;101409.88;;;2.94;100.00
64521;BME280;50896;46.714;17.322;2023-03-01T08:37:52;101407.00;;;2.99;100.00
64521;BME280;50896;46.714;17.322;2023-03-01T08:40:19;101395.81;;;2.95;100.00
64521;BME280;50896;46.714;17.322;2023-03-01T08:42:46;101398.63;;;2.92;100.00
64521;BME280;50896;46.714;17.322;2023-03-01T08:45:13;101404.19;;;3.02;100.00
64521;BME280;50896;46.714;17.322;2023-03-01T08:47:44;101396.50;;;2.99;100.00
64521;BME280;50896;46.714;17.322;2023-03-01T08:50:11;101373.66;;;2.85;100.00
64521;BME280;50896;46.714;17.322;2023-03-01T08:52:38;101384.63;;;2.91;100.00
64521;BME280;50896;46.714;17.322;2023-03-01T08:55:06;101384.94;;;3.01;100.00
64521;BME280;50896;46.714;17.322;2023-03-01T08:57:33;101391.06;;;3.02;100.00
64521;BME280;50896;46.714;17.322;2023-03-01T08:59:59;101369.66;;;2.94;100.00
64521;BME280;50896;46.714;17.322;2023-03-01T09:02:26;101383.09;;;3.03;100.00
64521;BME280;50896;46.714;17.322;2023-03-01T09:04:53;101376.03;;;3.04;100.00
64521;BME280;50896;46.714;17.322;2023-03-01T09:07:20;101385.63;;;3.05;100.00
64521;BME280;50896;46.714;17.322;2023-03-01T09:09:47;101377.94;;;3.02;100.00
64521;BME280;50896;46.714;17.322;2023-03-01T09:12:14;101381.47;;;3.01;100.00
64521;BME280;50896;46.714;17.322;2023-03-01T09:14:41;101383.69;;;3.08;100.00
64521;BME280;50896;46.714;17.322;2023-03-01T09:17:08;101379.44;;;3.06;100.00
64521;BME280;50896;46.714;17.322;2023-03-01T09:19:35;101351.75;;;3.00;100.00
64521;BME280;50896;46.714;17.322;2023-03-01T09:22:03;101377.13;;;3.16;100.00
64521;BME280;50896;46.714;17.322;2023-03-01T09:24:30;101368.66;;;3.11;100.00
64521;BME280;50896;46.714;17.322;2023-03-01T09:26:57;101373.06;;;3.10;100.00
64521;BME280;50896;46.714;17.322;2023-03-01T09:29:24;101357.00;;;3.00;100.00
64521;BME280;50896;46.714;17.322;2023-03-01T09:31:52;101368.13;;;3.20;100.00
64521;BME280;50896;46.714;17.322;2023-03-01T09:34:22;101365.75;;;3.15;100.00
64521;BME280;50896;46.714;17.322;2023-03-01T09:36:50;101355.22;;;3.01;100.00
64521;BME280;50896;46.714;17.322;2023-03-01T09:39:18;101369.13;;;3.17;100.00
64521;BME280;50896;46.714;17.322;2023-03-01T09:41:59;101362.66;;;3.08;100.00
64521;BME280;50896;46.714;17.322;2023-03-01T09:44:42;101362.47;;;3.12;100.00
64521;BME280;50896;46.714;17.322;2023-03-01T09:47:17;101374.88;;;3.24;100.00
64521;BME280;50896;46.714;17.322;2023-03-01T09:55:16;101375.81;;;3.23;100.00
64521;BME280;50896;46.714;17.322;2023-03-01T09:57:51;101368.66;;;3.25;100.00
64521;BME280;50896;46.714;17.322;2023-03-01T10:00:39;101369.97;;;3.18;100.00
64521;BME280;50896;46.714;17.322;2023-03-01T10:03:16;101373.47;;;3.18;100.00
64521;BME280;50896;46.714;17.322;2023-03-01T10:08:25;101387.25;;;3.22;100.00
64521;BME280;50896;46.714;17.322;2023-03-01T10:10:53;101396.53;;;3.13;100.00
64521;BME280;50896;46.714;17.322;2023-03-01T10:19:23;101395.59;;;3.14;100.00
64521;BME280;50896;46.714;17.322;2023-03-01T10:21:51;101396.25;;;3.18;100.00
64521;BME280;50896;46.714;17.322;2023-03-01T10:24:19;101367.63;;;3.13;100.00
64521;BME280;50896;46.714;17.322;2023-03-01T10:26:51;101381.47;;;3.31;100.00
64521;BME280;50896;46.714;17.322;2023-03-01T10:29:24;101376.22;;;3.31;100.00
64521;BME280;50896;46.714;17.322;2023-03-01T10:31:52;101377.59;;;3.22;100.00
64521;BME280;50896;46.714;17.322;2023-03-01T10:34:27;101350.16;;;3.12;100.00
64521;BME280;50896;46.714;17.322;2023-03-01T10:37:09;101373.84;;;3.27;100.00
64521;BME280;50896;46.714;17.322;2023-03-01T10:39:37;101361.16;;;3.33;100.00
64521;BME280;50896;46.714;17.322;2023-03-01T10:42:26;101370.75;;;3.34;100.00
64521;BME280;50896;46.714;17.322;2023-03-01T10:44:54;101339.94;;;3.22;100.00
64521;BME280;50896;46.714;17.322;2023-03-01T10:47:24;101358.28;;;3.38;100.00
64521;BME280;50896;46.714;17.322;2023-03-01T10:50:03;101334.78;;;3.35;100.00
64521;BME280;50896;46.714;17.322;2023-03-01T10:52:36;101347.50;;;3.42;100.00
64521;BME280;50896;46.714;17.322;2023-03-01T10:57:42;101355.84;;;3.49;100.00
64521;BME280;50896;46.714;17.322;2023-03-01T11:00:26;101349.28;;;3.56;100.00
64521;BME280;50896;46.714;17.322;2023-03-01T11:05:26;101333.56;;;3.69;100.00
64521;BME280;50896;46.714;17.322;2023-03-01T11:08:01;101313.56;;;3.67;100.00
64521;BME280;50896;46.714;17.322;2023-03-01T11:10:35;101324.56;;;3.73;100.00
64521;BME280;50896;46.714;17.322;2023-03-01T11:13:14;101325.88;;;3.81;100.00
64521;BME280;50896;46.714;17.322;2023-03-01T11:15:43;101328.03;;;3.88;100.00
64521;BME280;50896;46.714;17.322;2023-03-01T11:18:25;101316.63;;;3.88;100.00
64521;BME280;50896;46.714;17.322;2023-03-01T11:21:12;101301.81;;;3.87;100.00
64521;BME280;50896;46.714;17.322;2023-03-01T11:23:39;101313.53;;;3.96;100.00
64521;BME280;50896;46.714;17.322;2023-03-01T11:26:08;101320.06;;;4.17;100.00
64521;BME280;50896;46.714;17.322;2023-03-01T11:28:38;101303.56;;;4.28;100.00
64521;BME280;50896;46.714;17.322;2023-03-01T11:31:07;101284.31;;;4.27;100.00
64521;BME280;50896;46.714;17.322;2023-03-01T11:33:49;101304.06;;;4.48;100.00
64521;BME280;50896;46.714;17.322;2023-03-01T11:36:35;101259.16;;;4.36;100.00
64521;BME280;50896;46.714;17.322;2023-03-01T11:41:48;101276.56;;;4.52;100.00
64521;BME280;50896;46.714;17.322;2023-03-01T11:44:25;101288.72;;;4.67;100.00
64521;BME280;50896;46.714;17.322;2023-03-01T12:00:56;101266.94;;;4.38;100.00
64521;BME280;50896;46.714;17.322;2023-03-01T12:17:18;101227.19;;;4.68;100.00
64521;BME280;50896;46.714;17.322;2023-03-01T12:23:07;101221.09;;;4.68;100.00
64521;BME280;50896;46.714;17.322;2023-03-01T12:26:30;101220.44;;;4.77;100.00
64521;BME280;50896;46.714;17.322;2023-03-01T12:48:34;101207.72;;;4.84;100.00
64521;BME280;50896;46.714;17.322;2023-03-01T12:51:10;101177.56;;;4.75;100.00
64521;BME280;50896;46.714;17.322;2023-03-01T12:53:45;101189.28;;;4.71;100.00
64521;BME280;50896;46.714;17.322;2023-03-01T12:56:17;101210.03;;;4.75;100.00
64521;BME280;50896;46.714;17.322;2023-03-01T13:01:44;101184.00;;;4.71;100.00
64521;BME280;50896;46.714;17.322;2023-03-01T13:05:15;101177.88;;;4.83;100.00
64521;BME280;50896;46.714;17.322;2023-03-01T13:07:41;101185.16;;;4.79;100.00
64521;BME280;50896;46.714;17.322;2023-03-01T13:10:22;101185.47;;;4.75;100.00
64521;BME280;50896;46.714;17.322;2023-03-01T13:13:11;101183.88;;;4.72;100.00
64521;BME280;50896;46.714;17.322;2023-03-01T13:15:38;101171.25;;;4.77;100.00
64521;BME280;50896;46.714;17.322;2023-03-01T13:33:57;101152.47;;;4.82;100.00
64521;BME280;50896;46.714;17.322;2023-03-01T13:46:48;101123.41;;;4.71;100.00
64521;BME280;50896;46.714;17.322;2023-03-01T13:49:19;101143.63;;;4.83;100.00
64521;BME280;50896;46.714;17.322;2023-03-01T13:51:47;101142.59;;;4.86;100.00
64521;BME280;50896;46.714;17.322;2023-03-01T13:54:16;101134.56;;;4.87;100.00
64521;BME280;50896;46.714;17.322;2023-03-01T13:56:44;101139.09;;;4.85;100.00
64521;BME280;50896;46.714;17.322;2023-03-01T13:59:18;101132.88;;;4.86;100.00
64521;BME280;50896;46.714;17.322;2023-03-01T14:01:53;101125.19;;;4.83;100.00
64521;BME280;50896;46.714;17.322;2023-03-01T14:04:28;101130.56;;;4.82;100.00
64521;BME280;50896;46.714;17.322;2023-03-01T14:07:17;101123.72;;;4.79;100.00
64521;BME280;50896;46.714;17.322;2023-03-01T14:09:47;101103.28;;;4.70;100.00
64521;BME280;50896;46.714;17.322;2023-03-01T14:12:54;101117.50;;;4.80;100.00
64521;BME280;50896;46.714;17.322;2023-03-01T14:16:02;101118.88;;;4.73;100.00
64521;BME280;50896;46.714;17.322;2023-03-01T14:21:22;101113.09;;;4.68;100.00
64521;BME280;50896;46.714;17.322;2023-03-01T14:23:49;101106.13;;;4.67;100.00
64521;BME280;50896;46.714;17.322;2023-03-01T14:26:21;101104.56;;;4.64;100.00
64521;BME280;50896;46.714;17.322;2023-03-01T14:28:50;101107.41;;;4.61;100.00
64521;BME280;50896;46.714;17.322;2023-03-01T14:31:38;101110.88;;;4.61;100.00
64521;BME280;50896;46.714;17.322;2023-03-01T14:34:21;101096.34;;;4.56;100.00
64521;BME280;50896;46.714;17.322;2023-03-01T14:36:48;101100.56;;;4.58;100.00
64521;BME280;50896;46.714;17.322;2023-03-01T14:39:34;101078.56;;;4.47;100.00
64521;BME280;50896;46.714;17.322;2023-03-01T14:42:01;101094.66;;;4.55;100.00
64521;BME280;50896;46.714;17.322;2023-03-01T14:44:42;101100.66;;;4.57;100.00
64521;BME280;50896;46.714;17.322;2023-03-01T14:47:12;101088.88;;;4.50;100.00
64521;BME280;50896;46.714;17.322;2023-03-01T14:49:41;101099.72;;;4.58;100.00
64521;BME280;50896;46.714;17.322;2023-03-01T14:52:21;101067.81;;;4.50;100.00
64521;BME280;50896;46.714;17.322;2023-03-01T14:54:52;101085.59;;;4.59;100.00
64521;BME280;50896;46.714;17.322;2023-03-01T14:57:25;101080.97;;;4.62;100.00
64521;BME280;50896;46.714;17.322;2023-03-01T14:59:55;101061.81;;;4.60;100.00
64521;BME280;50896;46.714;17.322;2023-03-01T15:02:26;101058.41;;;4.58;100.00